sensor_id;sensor_type;location;lat;lon;timestamp;P1;durP1;ratioP1;P2;durP2;ratioP2
2305;SDS011;1161;51.922;8.896;2024-03-23T00:53:49;16.33;;;4.57;;
2305;SDS011;1161;51.922;8.896;2024-03-23T00:56:14;9.37;;;4.40;;
2305;SDS011;1161;51.922;8.896;2024-03-23T00:58:41;7.73;;;4.87;;
2305;SDS011;1161;51.922;8.896;2024-03-23T01:01:07;46.63;;;5.77;;
2305;SDS011;1161;51.922;8.896;2024-03-23T01:03:34;17.70;;;4.27;;
2305;SDS011;1161;51.922;8.896;2024-03-23T01:06:00;13.10;;;4.70;;
2305;SDS011;1161;51.922;8.896;2024-03-23T01:08:27;7.77;;;3.43;;
2305;SDS011;1161;51.922;8.896;2024-03-23T01:10:57;10.87;;;3.67;;
2305;SDS011;1161;51.922;8.896;2024-03-23T01:13:25;6.20;;;3.20;;
2305;SDS011;1161;51.922;8.896;2024-03-23T01:15:52;7.40;;;4.37;;
2305;SDS011;1161;51.922;8.896;2024-03-23T01:18:19;10.13;;;4.80;;
2305;SDS011;1161;51.922;8.896;2024-03-23T01:20:46;12.30;;;4.50;;
2305;SDS011;1161;51.922;8.896;2024-03-23T01:23:13;9.27;;;4.57;;
2305;SDS011;1161;51.922;8.896;2024-03-23T01:25:39;18.27;;;4.97;;
2305;SDS011;1161;51.922;8.896;2024-03-23T01:28:08;16.70;;;4.27;;
2305;SDS011;1161;51.922;8.896;2024-03-23T01:30:34;11.53;;;5.10;;
2305;SDS011;1161;51.922;8.896;2024-03-23T01:33:01;11.60;;;4.23;;
2305;SDS011;1161;51.922;8.896;2024-03-23T01:35:27;24.60;;;5.57;;
2305;SDS011;1161;51.922;8.896;2024-03-23T01:37:54;13.73;;;4.30;;
2305;SDS011;1161;51.922;8.896;2024-03-23T01:40:20;10.30;;;4.50;;
2305;SDS011;1161;51.922;8.896;2024-03-23T01:42:55;16.30;;;4.37;;
2305;SDS011;1161;51.922;8.896;2024-03-23T01:45:22;18.77;;;5.27;;
2305;SDS011;1161;51.922;8.896;2024-03-23T01:47:49;10.37;;;6.10;;
2305;SDS011;1161;51.922;8.896;2024-03-23T01:50:15;7.47;;;4.30;;
2305;SDS011;1161;51.922;8.896;2024-03-23T01:52:42;9.17;;;5.53;;
2305;SDS011;1161;51.922;8.896;2024-03-23T01:55:08;11.90;;;5.53;;
2305;SDS011;1161;51.922;8.896;2024-03-23T01:57:35;13.20;;;4.70;;
2305;SDS011;1161;51.922;8.896;2024-03-23T02:00:01;20.33;;;6.17;;
2305;SDS011;1161;51.922;8.896;2024-03-23T02:02:29;13.33;;;6.13;;
2305;SDS011;1161;51.922;8.896;2024-03-23T02:04:55;21.93;;;6.20;;
2305;SDS011;1161;51.922;8.896;2024-03-23T02:07:22;12.50;;;5.43;;
2305;SDS011;1161;51.922;8.896;2024-03-23T02:09:49;9.93;;;5.23;;
2305;SDS011;1161;51.922;8.896;2024-03-23T02:12:16;16.90;;;5.47;;
2305;SDS011;1161;51.922;8.896;2024-03-23T02:14:42;28.63;;;5.90;;
2305;SDS011;1161;51.922;8.896;2024-03-23T02:17:09;15.30;;;6.20;;
2305;SDS011;1161;51.922;8.896;2024-03-23T02:19:37;16.40;;;5.83;;
2305;SDS011;1161;51.922;8.896;2024-03-23T02:22:04;8.87;;;4.93;;
2305;SDS011;1161;51.922;8.896;2024-03-23T02:24:31;11.30;;;5.00;;
2305;SDS011;1161;51.922;8.896;2024-03-23T02:27:00;19.27;;;6.13;;
2305;SDS011;1161;51.922;8.896;2024-03-23T02:29:27;23.03;;;5.20;;
2305;SDS011;1161;51.922;8.896;2024-03-23T02:31:54;11.70;;;4.80;;
2305;SDS011;1161;51.922;8.896;2024-03-23T02:34:19;11.67;;;5.37;;
2305;SDS011;1161;51.922;8.896;2024-03-23T02:36:46;17.63;;;5.43;;
2305;SDS011;1161;51.922;8.896;2024-03-23T02:39:12;16.93;;;5.67;;
2305;SDS011;1161;51.922;8.896;2024-03-23T02:41:40;7.87;;;5.13;;
2305;SDS011;1161;51.922;8.896;2024-03-23T02:44:07;14.13;;;5.10;;
2305;SDS011;1161;51.922;8.896;2024-03-23T02:46:37;15.00;;;5.40;;
2305;SDS011;1161;51.922;8.896;2024-03-23T02:49:03;25.50;;;7.60;;
2305;SDS011;1161;51.922;8.896;2024-03-23T02:51:30;16.00;;;6.33;;
2305;SDS011;1161;51.922;8.896;2024-03-23T02:53:56;19.43;;;5.87;;
2305;SDS011;1161;51.922;8.896;2024-03-23T02:56:22;16.83;;;5.93;;
2305;SDS011;1161;51.922;8.896;2024-03-23T02:58:50;15.57;;;5.60;;
2305;SDS011;1161;51.922;8.896;2024-03-23T03:01:17;17.90;;;7.10;;
2305;SDS011;1161;51.922;8.896;2024-03-23T03:03:43;21.57;;;6.20;;
2305;SDS011;1161;51.922;8.896;2024-03-23T03:06:10;28.47;;;7.57;;
2305;SDS011;1161;51.922;8.896;2024-03-23T03:08:36;15.97;;;6.07;;
2305;SDS011;1161;51.922;8.896;2024-03-23T03:11:03;21.13;;;7.30;;
2305;SDS011;1161;51.922;8.896;2024-03-23T03:13:29;25.20;;;6.60;;
2305;SDS011;1161;51.922;8.896;2024-03-23T03:15:57;12.93;;;5.50;;
2305;SDS011;1161;51.922;8.896;2024-03-23T03:18:24;23.07;;;6.70;;
2305;SDS011;1161;51.922;8.896;2024-03-23T03:20:53;12.17;;;5.30;;
2305;SDS011;1161;51.922;8.896;2024-03-23T03:23:19;15.73;;;7.00;;
2305;SDS011;1161;51.922;8.896;2024-03-23T03:25:46;13.73;;;4.40;;
2305;SDS011;1161;51.922;8.896;2024-03-23T03:28:12;9.20;;;4.27;;
2305;SDS011;1161;51.922;8.896;2024-03-23T03:30:39;17.17;;;5.07;;
2305;SDS011;1161;51.922;8.896;2024-03-23T03:33:13;8.80;;;4.20;;
2305;SDS011;1161;51.922;8.896;2024-03-23T03:35:40;11.93;;;4.57;;
2305;SDS011;1161;51.922;8.896;2024-03-23T03:38:05;11.83;;;4.10;;
2305;SDS011;1161;51.922;8.896;2024-03-23T03:40:32;10.70;;;3.70;;
2305;SDS011;1161;51.922;8.896;2024-03-23T03:42:58;8.43;;;4.47;;
2305;SDS011;1161;51.922;8.896;2024-03-23T03:45:25;9.00;;;3.50;;
2305;SDS011;1161;51.922;8.896;2024-03-23T03:47:51;7.70;;;4.00;;
2305;SDS011;1161;51.922;8.896;2024-03-23T03:50:19;13.47;;;4.63;;
2305;SDS011;1161;51.922;8.896;2024-03-23T03:52:45;14.83;;;3.50;;
2305;SDS011;1161;51.922;8.896;2024-03-23T03:55:12;3.70;;;3.23;;
2305;SDS011;1161;51.922;8.896;2024-03-23T03:57:43;8.63;;;3.43;;
2305;SDS011;1161;51.922;8.896;2024-03-23T04:00:11;8.50;;;2.90;;
2305;SDS011;1161;51.922;8.896;2024-03-23T04:02:37;5.37;;;2.70;;
2305;SDS011;1161;51.922;8.896;2024-03-23T04:05:05;4.77;;;3.20;;
2305;SDS011;1161;51.922;8.896;2024-03-23T04:07:35;7.17;;;3.00;;
2305;SDS011;1161;51.922;8.896;2024-03-23T04:10:06;10.90;;;2.63;;
2305;SDS011;1161;51.922;8.896;2024-03-23T04:12:34;3.90;;;2.90;;
2305;SDS011;1161;51.922;8.896;2024-03-23T04:15:03;11.30;;;3.30;;
2305;SDS011;1161;51.922;8.896;2024-03-23T04:17:30;6.07;;;2.93;;
2305;SDS011;1161;51.922;8.896;2024-03-23T04:20:00;11.97;;;3.47;;
2305;SDS011;1161;51.922;8.896;2024-03-23T04:22:29;11.97;;;2.27;;
2305;SDS011;1161;51.922;8.896;2024-03-23T04:25:00;9.63;;;3.37;;
2305;SDS011;1161;51.922;8.896;2024-03-23T04:27:32;10.27;;;2.43;;
2305;SDS011;1161;51.922;8.896;2024-03-23T04:30:02;10.23;;;2.03;;
2305;SDS011;1161;51.922;8.896;2024-03-23T04:32:32;2.73;;;2.50;;
2305;SDS011;1161;51.922;8.896;2024-03-23T04:35:01;14.77;;;4.00;;
2305;SDS011;1161;51.922;8.896;2024-03-23T04:37:27;6.03;;;3.03;;
2305;SDS011;1161;51.922;8.896;2024-03-23T04:40:02;12.30;;;4.20;;
2305;SDS011;1161;51.922;8.896;2024-03-23T04:42:30;6.30;;;3.10;;
2305;SDS011;1161;51.922;8.896;2024-03-23T04:44:58;9.50;;;4.07;;
2305;SDS011;1161;51.922;8.896;2024-03-23T04:47:31;5.53;;;2.60;;
2305;SDS011;1161;51.922;8.896;2024-03-23T04:49:59;8.93;;;3.90;;
2305;SDS011;1161;51.922;8.896;2024-03-23T04:52:30;6.77;;;3.63;;
2305;SDS011;1161;51.922;8.896;2024-03-23T04:55:00;11.60;;;3.70;;
2305;SDS011;1161;51.922;8.896;2024-03-23T04:57:32;11.23;;;4.10;;
2305;SDS011;1161;51.922;8.896;2024-03-23T05:00:01;6.27;;;3.13;;
2305;SDS011;1161;51.922;8.896;2024-03-23T05:02:30;22.73;;;4.27;;
2305;SDS011;1161;51.922;8.896;2024-03-23T05:04:59;9.40;;;4.00;;
2305;SDS011;1161;51.922;8.896;2024-03-23T05:07:26;16.70;;;4.13;;
2305;SDS011;1161;51.922;8.896;2024-03-23T05:09:52;11.00;;;3.57;;
2305;SDS011;1161;51.922;8.896;2024-03-23T05:12:19;22.90;;;3.43;;
2305;SDS011;1161;51.922;8.896;2024-03-23T05:14:46;12.87;;;3.37;;
2305;SDS011;1161;51.922;8.896;2024-03-23T05:17:15;7.33;;;2.80;;
2305;SDS011;1161;51.922;8.896;2024-03-23T05:19:42;9.87;;;2.87;;
2305;SDS011;1161;51.922;8.896;2024-03-23T05:22:09;10.27;;;4.40;;
2305;SDS011;1161;51.922;8.896;2024-03-23T05:24:35;8.43;;;4.27;;
2305;SDS011;1161;51.922;8.896;2024-03-23T05:27:02;7.03;;;5.00;;
2305;SDS011;1161;51.922;8.896;2024-03-23T05:29:28;7.27;;;3.27;;
2305;SDS011;1161;51.922;8.896;2024-03-23T05:31:57;14.50;;;4.27;;
2305;SDS011;1161;51.922;8.896;2024-03-23T05:34:22;11.27;;;4.63;;
2305;SDS011;1161;51.922;8.896;2024-03-23T05:36:50;11.40;;;3.83;;
2305;SDS011;1161;51.922;8.896;2024-03-23T05:39:16;12.43;;;3.47;;
2305;SDS011;1161;51.922;8.896;2024-03-23T05:41:43;6.23;;;4.20;;
2305;SDS011;1161;51.922;8.896;2024-03-23T05:44:09;4.77;;;4.37;;
2305;SDS011;1161;51.922;8.896;2024-03-23T05:46:36;11.90;;;3.87;;
2305;SDS011;1161;51.922;8.896;2024-03-23T05:49:03;13.20;;;4.33;;
2305;SDS011;1161;51.922;8.896;2024-03-23T05:51:30;5.03;;;3.50;;
2305;SDS011;1161;51.922;8.896;2024-03-23T05:53:56;22.20;;;5.13;;
2305;SDS011;1161;51.922;8.896;2024-03-23T05:56:23;5.73;;;2.80;;
2305;SDS011;1161;51.922;8.896;2024-03-23T05:58:48;7.93;;;2.40;;
2305;SDS011;1161;51.922;8.896;2024-03-23T06:01:15;8.37;;;2.53;;
2305;SDS011;1161;51.922;8.896;2024-03-23T06:03:41;3.60;;;2.10;;
2305;SDS011;1161;51.922;8.896;2024-03-23T06:06:10;4.20;;;2.17;;
2305;SDS011;1161;51.922;8.896;2024-03-23T06:08:38;5.37;;;2.13;;
2305;SDS011;1161;51.922;8.896;2024-03-23T06:11:05;4.33;;;1.83;;
2305;SDS011;1161;51.922;8.896;2024-03-23T06:13:31;16.73;;;2.83;;
2305;SDS011;1161;51.922;8.896;2024-03-23T06:15:59;4.63;;;2.17;;
2305;SDS011;1161;51.922;8.896;2024-03-23T06:18:25;15.20;;;2.53;;
2305;SDS011;1161;51.922;8.896;2024-03-23T06:20:51;6.43;;;3.10;;
2305;SDS011;1161;51.922;8.896;2024-03-23T06:23:19;9.57;;;2.57;;
2305;SDS011;1161;51.922;8.896;2024-03-23T06:25:46;9.37;;;2.97;;
2305;SDS011;1161;51.922;8.896;2024-03-23T06:28:12;6.33;;;3.20;;
2305;SDS011;1161;51.922;8.896;2024-03-23T06:30:39;7.40;;;3.67;;
2305;SDS011;1161;51.922;8.896;2024-03-23T06:33:05;10.23;;;4.67;;
2305;SDS011;1161;51.922;8.896;2024-03-23T06:35:31;8.77;;;4.00;;
2305;SDS011;1161;51.922;8.896;2024-03-23T06:37:57;13.63;;;4.90;;
2305;SDS011;1161;51.922;8.896;2024-03-23T06:40:26;11.73;;;5.57;;
2305;SDS011;1161;51.922;8.896;2024-03-23T06:42:51;12.03;;;4.60;;
2305;SDS011;1161;51.922;8.896;2024-03-23T06:45:18;16.20;;;5.90;;
2305;SDS011;1161;51.922;8.896;2024-03-23T06:47:48;13.77;;;5.07;;
2305;SDS011;1161;51.922;8.896;2024-03-23T06:50:15;18.63;;;5.63;;
2305;SDS011;1161;51.922;8.896;2024-03-23T06:52:42;19.00;;;7.70;;
2305;SDS011;1161;51.922;8.896;2024-03-23T06:55:08;20.53;;;8.20;;
2305;SDS011;1161;51.922;8.896;2024-03-23T06:57:36;28.57;;;10.53;;
2305;SDS011;1161;51.922;8.896;2024-03-23T07:00:02;12.70;;;5.23;;
2305;SDS011;1161;51.922;8.896;2024-03-23T07:02:31;13.27;;;5.73;;
2305;SDS011;1161;51.922;8.896;2024-03-23T07:04:57;25.00;;;7.00;;
2305;SDS011;1161;51.922;8.896;2024-03-23T07:07:23;23.50;;;8.13;;
2305;SDS011;1161;51.922;8.896;2024-03-23T07:09:49;23.47;;;8.17;;
2305;SDS011;1161;51.922;8.896;2024-03-23T07:12:16;24.43;;;9.60;;
2305;SDS011;1161;51.922;8.896;2024-03-23T07:14:44;14.77;;;6.27;;
2305;SDS011;1161;51.922;8.896;2024-03-23T07:17:11;24.70;;;6.53;;
2305;SDS011;1161;51.922;8.896;2024-03-23T07:19:37;17.67;;;5.77;;
2305;SDS011;1161;51.922;8.896;2024-03-23T07:22:03;18.70;;;6.20;;
2305;SDS011;1161;51.922;8.896;2024-03-23T07:24:30;18.63;;;7.67;;
2305;SDS011;1161;51.922;8.896;2024-03-23T07:26:58;37.97;;;10.90;;
2305;SDS011;1161;51.922;8.896;2024-03-23T07:29:24;19.30;;;9.73;;
2305;SDS011;1161;51.922;8.896;2024-03-23T07:31:52;44.53;;;9.30;;
2305;SDS011;1161;51.922;8.896;2024-03-23T07:34:18;22.47;;;8.67;;
2305;SDS011;1161;51.922;8.896;2024-03-23T07:36:45;20.50;;;8.07;;
2305;SDS011;1161;51.922;8.896;2024-03-23T07:39:11;14.40;;;7.80;;
2305;SDS011;1161;51.922;8.896;2024-03-23T07:41:37;16.97;;;8.53;;
2305;SDS011;1161;51.922;8.896;2024-03-23T07:44:03;20.67;;;9.07;;
2305;SDS011;1161;51.922;8.896;2024-03-23T07:46:30;24.50;;;9.63;;
2305;SDS011;1161;51.922;8.896;2024-03-23T07:48:58;28.47;;;10.37;;
2305;SDS011;1161;51.922;8.896;2024-03-23T07:51:24;27.00;;;10.30;;
2305;SDS011;1161;51.922;8.896;2024-03-23T07:53:50;29.17;;;10.80;;
2305;SDS011;1161;51.922;8.896;2024-03-23T07:56:18;29.83;;;11.00;;
2305;SDS011;1161;51.922;8.896;2024-03-23T07:58:45;42.13;;;10.73;;
2305;SDS011;1161;51.922;8.896;2024-03-23T08:01:12;30.73;;;11.70;;
2305;SDS011;1161;51.922;8.896;2024-03-23T08:03:40;28.40;;;11.10;;
2305;SDS011;1161;51.922;8.896;2024-03-23T08:06:10;58.87;;;13.47;;
2305;SDS011;1161;51.922;8.896;2024-03-23T08:08:37;41.60;;;12.10;;
2305;SDS011;1161;51.922;8.896;2024-03-23T08:11:04;38.53;;;12.33;;
2305;SDS011;1161;51.922;8.896;2024-03-23T08:13:31;26.20;;;11.27;;
2305;SDS011;1161;51.922;8.896;2024-03-23T08:15:57;42.93;;;12.53;;
2305;SDS011;1161;51.922;8.896;2024-03-23T08:18:24;32.63;;;11.40;;
2305;SDS011;1161;51.922;8.896;2024-03-23T08:20:57;26.77;;;11.13;;
2305;SDS011;1161;51.922;8.896;2024-03-23T08:23:25;51.60;;;13.30;;
2305;SDS011;1161;51.922;8.896;2024-03-23T08:25:52;34.87;;;12.67;;
2305;SDS011;1161;51.922;8.896;2024-03-23T08:28:18;43.90;;;18.23;;
2305;SDS011;1161;51.922;8.896;2024-03-23T08:30:44;25.37;;;11.97;;
2305;SDS011;1161;51.922;8.896;2024-03-23T08:33:10;37.07;;;16.20;;
2305;SDS011;1161;51.922;8.896;2024-03-23T08:35:38;29.63;;;12.53;;
2305;SDS011;1161;51.922;8.896;2024-03-23T08:38:04;29.77;;;13.47;;
2305;SDS011;1161;51.922;8.896;2024-03-23T08:40:32;33.10;;;13.10;;
2305;SDS011;1161;51.922;8.896;2024-03-23T08:42:58;34.83;;;12.90;;
2305;SDS011;1161;51.922;8.896;2024-03-23T08:45:25;32.47;;;12.83;;
2305;SDS011;1161;51.922;8.896;2024-03-23T08:47:51;39.03;;;13.70;;
2305;SDS011;1161;51.922;8.896;2024-03-23T08:50:17;20.80;;;10.07;;
2305;SDS011;1161;51.922;8.896;2024-03-23T08:52:43;33.30;;;10.43;;
2305;SDS011;1161;51.922;8.896;2024-03-23T08:55:10;39.30;;;12.20;;
2305;SDS011;1161;51.922;8.896;2024-03-23T08:57:37;31.97;;;12.90;;
2305;SDS011;1161;51.922;8.896;2024-03-23T09:00:05;43.53;;;17.07;;
2305;SDS011;1161;51.922;8.896;2024-03-23T09:02:34;56.67;;;15.07;;
2305;SDS011;1161;51.922;8.896;2024-03-23T09:05:01;26.03;;;10.47;;
2305;SDS011;1161;51.922;8.896;2024-03-23T09:07:30;33.47;;;12.67;;
2305;SDS011;1161;51.922;8.896;2024-03-23T09:09:57;20.53;;;8.93;;
2305;SDS011;1161;51.922;8.896;2024-03-23T09:12:23;32.57;;;10.10;;
2305;SDS011;1161;51.922;8.896;2024-03-23T09:14:53;19.83;;;10.07;;
2305;SDS011;1161;51.922;8.896;2024-03-23T09:17:19;32.03;;;11.77;;
2305;SDS011;1161;51.922;8.896;2024-03-23T09:19:47;31.77;;;10.60;;
2305;SDS011;1161;51.922;8.896;2024-03-23T09:22:13;24.50;;;10.27;;
2305;SDS011;1161;51.922;8.896;2024-03-23T09:24:40;25.27;;;9.33;;
2305;SDS011;1161;51.922;8.896;2024-03-23T09:27:06;27.30;;;9.67;;
2305;SDS011;1161;51.922;8.896;2024-03-23T09:29:32;19.83;;;9.83;;
2305;SDS011;1161;51.922;8.896;2024-03-23T09:32:00;18.17;;;8.63;;
2305;SDS011;1161;51.922;8.896;2024-03-23T09:34:27;20.43;;;10.10;;
2305;SDS011;1161;51.922;8.896;2024-03-23T09:36:53;20.70;;;7.60;;
2305;SDS011;1161;51.922;8.896;2024-03-23T09:39:20;26.67;;;8.13;;
2305;SDS011;1161;51.922;8.896;2024-03-23T09:41:46;16.17;;;7.90;;
2305;SDS011;1161;51.922;8.896;2024-03-23T09:44:13;28.07;;;7.40;;
2305;SDS011;1161;51.922;8.896;2024-03-23T09:46:39;27.60;;;8.50;;
2305;SDS011;1161;51.922;8.896;2024-03-23T09:49:08;16.77;;;8.47;;
2305;SDS011;1161;51.922;8.896;2024-03-23T09:51:35;18.87;;;7.43;;
2305;SDS011;1161;51.922;8.896;2024-03-23T09:54:02;22.47;;;5.50;;
2305;SDS011;1161;51.922;8.896;2024-03-23T09:56:28;10.73;;;6.30;;
2305;SDS011;1161;51.922;8.896;2024-03-23T09:59:00;8.47;;;4.10;;
2305;SDS011;1161;51.922;8.896;2024-03-23T10:01:26;10.73;;;4.73;;
2305;SDS011;1161;51.922;8.896;2024-03-23T10:03:53;9.13;;;4.90;;
2305;SDS011;1161;51.922;8.896;2024-03-23T10:06:22;15.93;;;6.00;;
2305;SDS011;1161;51.922;8.896;2024-03-23T10:08:50;8.13;;;5.10;;
2305;SDS011;1161;51.922;8.896;2024-03-23T10:11:16;17.03;;;7.50;;
2305;SDS011;1161;51.922;8.896;2024-03-23T10:13:44;18.20;;;5.27;;
2305;SDS011;1161;51.922;8.896;2024-03-23T10:16:12;7.10;;;6.43;;
2305;SDS011;1161;51.922;8.896;2024-03-23T10:18:39;16.73;;;7.50;;
2305;SDS011;1161;51.922;8.896;2024-03-23T10:21:08;20.43;;;6.97;;
2305;SDS011;1161;51.922;8.896;2024-03-23T10:23:38;11.30;;;6.10;;
2305;SDS011;1161;51.922;8.896;2024-03-23T10:26:17;18.17;;;7.10;;
2305;SDS011;1161;51.922;8.896;2024-03-23T10:28:50;15.90;;;5.90;;
2305;SDS011;1161;51.922;8.896;2024-03-23T10:31:17;12.50;;;6.23;;
2305;SDS011;1161;51.922;8.896;2024-03-23T10:33:45;15.20;;;5.00;;
2305;SDS011;1161;51.922;8.896;2024-03-23T10:36:11;7.77;;;4.63;;
2305;SDS011;1161;51.922;8.896;2024-03-23T10:38:40;10.37;;;4.40;;
2305;SDS011;1161;51.922;8.896;2024-03-23T10:41:06;15.23;;;5.60;;
2305;SDS011;1161;51.922;8.896;2024-03-23T10:43:34;11.37;;;5.97;;
2305;SDS011;1161;51.922;8.896;2024-03-23T10:46:00;9.53;;;4.60;;
2305;SDS011;1161;51.922;8.896;2024-03-23T10:48:28;19.03;;;6.13;;
2305;SDS011;1161;51.922;8.896;2024-03-23T10:50:54;12.03;;;4.90;;
2305;SDS011;1161;51.922;8.896;2024-03-23T10:53:21;9.93;;;4.63;;
2305;SDS011;1161;51.922;8.896;2024-03-23T10:55:50;9.70;;;5.20;;
2305;SDS011;1161;51.922;8.896;2024-03-23T10:58:17;12.87;;;5.17;;
2305;SDS011;1161;51.922;8.896;2024-03-23T11:00:45;17.00;;;4.27;;
2305;SDS011;1161;51.922;8.896;2024-03-23T11:03:30;10.20;;;4.30;;
2305;SDS011;1161;51.922;8.896;2024-03-23T11:05:56;13.33;;;4.50;;
2305;SDS011;1161;51.922;8.896;2024-03-23T11:08:30;13.03;;;4.20;;
2305;SDS011;1161;51.922;8.896;2024-03-23T11:13:52;12.43;;;3.73;;
2305;SDS011;1161;51.922;8.896;2024-03-23T11:16:21;7.40;;;3.63;;
2305;SDS011;1161;51.922;8.896;2024-03-23T11:18:48;18.87;;;6.50;;
2305;SDS011;1161;51.922;8.896;2024-03-23T11:24:13;7.93;;;5.10;;
2305;SDS011;1161;51.922;8.896;2024-03-23T11:26:40;28.17;;;8.50;;
2305;SDS011;1161;51.922;8.896;2024-03-23T11:29:10;11.77;;;5.07;;
2305;SDS011;1161;51.922;8.896;2024-03-23T11:31:37;17.33;;;8.70;;
2305;SDS011;1161;51.922;8.896;2024-03-23T11:34:04;5.77;;;2.93;;
2305;SDS011;1161;51.922;8.896;2024-03-23T11:36:31;17.03;;;2.83;;
2305;SDS011;1161;51.922;8.896;2024-03-23T11:38:57;8.57;;;3.10;;
2305;SDS011;1161;51.922;8.896;2024-03-23T11:41:24;7.37;;;3.93;;
2305;SDS011;1161;51.922;8.896;2024-03-23T11:43:50;9.13;;;5.70;;
2305;SDS011;1161;51.922;8.896;2024-03-23T11:46:24;8.80;;;3.40;;
2305;SDS011;1161;51.922;8.896;2024-03-23T11:48:50;8.60;;;2.80;;
2305;SDS011;1161;51.922;8.896;2024-03-23T11:51:17;11.30;;;4.03;;
2305;SDS011;1161;51.922;8.896;2024-03-23T11:53:43;7.83;;;4.70;;
2305;SDS011;1161;51.922;8.896;2024-03-23T11:56:09;8.23;;;3.63;;
2305;SDS011;1161;51.922;8.896;2024-03-23T11:58:35;6.40;;;3.70;;
2305;SDS011;1161;51.922;8.896;2024-03-23T12:01:02;4.53;;;3.53;;
2305;SDS011;1161;51.922;8.896;2024-03-23T12:03:30;13.53;;;3.40;;
2305;SDS011;1161;51.922;8.896;2024-03-23T12:06:00;27.10;;;6.57;;
2305;SDS011;1161;51.922;8.896;2024-03-23T12:08:29;10.03;;;5.10;;
2305;SDS011;1161;51.922;8.896;2024-03-23T12:11:04;21.17;;;6.50;;
2305;SDS011;1161;51.922;8.896;2024-03-23T12:13:32;22.97;;;9.47;;
2305;SDS011;1161;51.922;8.896;2024-03-23T12:16:08;12.03;;;4.30;;
2305;SDS011;1161;51.922;8.896;2024-03-23T12:18:37;16.47;;;7.10;;
2305;SDS011;1161;51.922;8.896;2024-03-23T12:21:04;31.07;;;14.17;;
2305;SDS011;1161;51.922;8.896;2024-03-23T12:23:30;10.63;;;5.17;;
2305;SDS011;1161;51.922;8.896;2024-03-23T12:25:57;11.77;;;6.30;;
2305;SDS011;1161;51.922;8.896;2024-03-23T12:28:23;5.40;;;4.70;;
2305;SDS011;1161;51.922;8.896;2024-03-23T12:30:51;9.80;;;4.97;;
2305;SDS011;1161;51.922;8.896;2024-03-23T12:33:17;10.07;;;5.33;;
2305;SDS011;1161;51.922;8.896;2024-03-23T12:35:45;9.13;;;4.07;;
2305;SDS011;1161;51.922;8.896;2024-03-23T12:38:11;17.10;;;4.43;;
2305;SDS011;1161;51.922;8.896;2024-03-23T12:40:38;8.93;;;3.90;;
2305;SDS011;1161;51.922;8.896;2024-03-23T12:43:04;5.97;;;4.03;;
2305;SDS011;1161;51.922;8.896;2024-03-23T12:45:30;5.07;;;3.30;;
2305;SDS011;1161;51.922;8.896;2024-03-23T12:47:56;6.40;;;4.20;;
2305;SDS011;1161;51.922;8.896;2024-03-23T12:50:23;8.30;;;4.30;;
2305;SDS011;1161;51.922;8.896;2024-03-23T12:52:50;2.33;;;2.00;;
2305;SDS011;1161;51.922;8.896;2024-03-23T12:55:17;4.07;;;1.60;;
2305;SDS011;1161;51.922;8.896;2024-03-23T12:57:43;5.13;;;1.60;;
2305;SDS011;1161;51.922;8.896;2024-03-23T13:00:10;1.50;;;1.30;;
2305;SDS011;1161;51.922;8.896;2024-03-23T13:02:37;1.57;;;1.20;;
2305;SDS011;1161;51.922;8.896;2024-03-23T13:05:05;10.70;;;1.37;;
2305;SDS011;1161;51.922;8.896;2024-03-23T13:07:33;1.20;;;1.10;;
2305;SDS011;1161;51.922;8.896;2024-03-23T13:10:02;1.50;;;1.40;;
2305;SDS011;1161;51.922;8.896;2024-03-23T13:12:27;8.30;;;1.50;;
2305;SDS011;1161;51.922;8.896;2024-03-23T13:14:54;12.63;;;2.33;;
2305;SDS011;1161;51.922;8.896;2024-03-23T13:17:20;2.30;;;1.27;;
2305;SDS011;1161;51.922;8.896;2024-03-23T13:19:47;2.73;;;1.70;;
2305;SDS011;1161;51.922;8.896;2024-03-23T13:22:13;8.23;;;2.57;;
2305;SDS011;1161;51.922;8.896;2024-03-23T13:24:39;4.83;;;2.17;;
2305;SDS011;1161;51.922;8.896;2024-03-23T13:27:07;2.60;;;2.00;;
2305;SDS011;1161;51.922;8.896;2024-03-23T13:29:34;2.00;;;1.87;;
2305;SDS011;1161;51.922;8.896;2024-03-23T13:32:00;2.03;;;1.80;;
2305;SDS011;1161;51.922;8.896;2024-03-23T13:34:27;2.70;;;1.90;;
2305;SDS011;1161;51.922;8.896;2024-03-23T13:36:54;5.70;;;3.33;;
2305;SDS011;1161;51.922;8.896;2024-03-23T13:39:23;2.63;;;1.57;;
2305;SDS011;1161;51.922;8.896;2024-03-23T13:41:49;7.20;;;3.47;;
2305;SDS011;1161;51.922;8.896;2024-03-23T13:44:17;2.00;;;1.90;;
2305;SDS011;1161;51.922;8.896;2024-03-23T13:46:43;3.43;;;2.40;;
2305;SDS011;1161;51.922;8.896;2024-03-23T13:49:10;5.00;;;2.10;;
2305;SDS011;1161;51.922;8.896;2024-03-23T13:51:46;11.63;;;3.13;;
2305;SDS011;1161;51.922;8.896;2024-03-23T13:54:12;8.70;;;2.50;;
2305;SDS011;1161;51.922;8.896;2024-03-23T13:56:38;2.47;;;2.07;;
2305;SDS011;1161;51.922;8.896;2024-03-23T13:59:05;17.17;;;2.50;;
2305;SDS011;1161;51.922;8.896;2024-03-23T14:01:33;2.27;;;2.13;;
2305;SDS011;1161;51.922;8.896;2024-03-23T14:04:00;2.80;;;2.00;;
2305;SDS011;1161;51.922;8.896;2024-03-23T14:06:26;7.00;;;2.57;;
2305;SDS011;1161;51.922;8.896;2024-03-23T14:08:52;7.00;;;1.80;;
2305;SDS011;1161;51.922;8.896;2024-03-23T14:11:18;1.80;;;1.70;;
2305;SDS011;1161;51.922;8.896;2024-03-23T14:13:45;1.17;;;1.17;;
2305;SDS011;1161;51.922;8.896;2024-03-23T14:16:11;3.57;;;3.27;;
2305;SDS011;1161;51.922;8.896;2024-03-23T14:18:39;4.13;;;1.70;;
2305;SDS011;1161;51.922;8.896;2024-03-23T14:21:05;4.20;;;1.20;;
2305;SDS011;1161;51.922;8.896;2024-03-23T14:23:32;8.17;;;3.83;;
2305;SDS011;1161;51.922;8.896;2024-03-23T14:25:59;8.07;;;7.13;;
2305;SDS011;1161;51.922;8.896;2024-03-23T14:28:26;4.40;;;4.10;;
2305;SDS011;1161;51.922;8.896;2024-03-23T14:30:54;3.17;;;2.60;;
2305;SDS011;1161;51.922;8.896;2024-03-23T14:33:22;12.93;;;4.40;;
2305;SDS011;1161;51.922;8.896;2024-03-23T14:35:52;6.43;;;4.40;;
2305;SDS011;1161;51.922;8.896;2024-03-23T14:38:21;4.73;;;3.57;;
2305;SDS011;1161;51.922;8.896;2024-03-23T14:40:47;17.80;;;8.57;;
2305;SDS011;1161;51.922;8.896;2024-03-23T14:43:14;17.10;;;7.73;;
2305;SDS011;1161;51.922;8.896;2024-03-23T14:45:45;5.50;;;2.53;;
2305;SDS011;1161;51.922;8.896;2024-03-23T14:48:32;15.17;;;6.47;;
2305;SDS011;1161;51.922;8.896;2024-03-23T14:50:59;37.70;;;13.80;;
2305;SDS011;1161;51.922;8.896;2024-03-23T14:53:26;10.60;;;4.57;;
2305;SDS011;1161;51.922;8.896;2024-03-23T14:55:54;5.93;;;4.07;;
2305;SDS011;1161;51.922;8.896;2024-03-23T14:58:21;10.60;;;4.30;;
2305;SDS011;1161;51.922;8.896;2024-03-23T15:00:48;2.43;;;2.20;;
2305;SDS011;1161;51.922;8.896;2024-03-23T15:03:14;4.67;;;2.07;;
2305;SDS011;1161;51.922;8.896;2024-03-23T15:05:41;2.43;;;2.30;;
2305;SDS011;1161;51.922;8.896;2024-03-23T15:08:10;2.73;;;2.20;;
2305;SDS011;1161;51.922;8.896;2024-03-23T15:10:36;2.20;;;2.10;;
2305;SDS011;1161;51.922;8.896;2024-03-23T15:13:03;4.50;;;2.37;;
2305;SDS011;1161;51.922;8.896;2024-03-23T15:15:29;2.77;;;2.67;;
2305;SDS011;1161;51.922;8.896;2024-03-23T15:17:56;4.80;;;3.07;;
2305;SDS011;1161;51.922;8.896;2024-03-23T15:20:21;6.97;;;3.10;;
2305;SDS011;1161;51.922;8.896;2024-03-23T15:22:48;28.23;;;12.07;;
2305;SDS011;1161;51.922;8.896;2024-03-23T15:25:15;5.80;;;4.00;;
2305;SDS011;1161;51.922;8.896;2024-03-23T15:27:42;2.10;;;2.00;;
2305;SDS011;1161;51.922;8.896;2024-03-23T15:30:08;5.73;;;3.47;;
2305;SDS011;1161;51.922;8.896;2024-03-23T15:32:36;3.03;;;2.40;;
2305;SDS011;1161;51.922;8.896;2024-03-23T15:35:02;2.73;;;2.30;;
2305;SDS011;1161;51.922;8.896;2024-03-23T15:37:32;2.20;;;2.10;;
2305;SDS011;1161;51.922;8.896;2024-03-23T15:39:59;3.83;;;2.10;;
2305;SDS011;1161;51.922;8.896;2024-03-23T15:42:28;7.40;;;2.00;;
2305;SDS011;1161;51.922;8.896;2024-03-23T15:44:54;10.30;;;1.90;;
2305;SDS011;1161;51.922;8.896;2024-03-23T15:47:21;1.63;;;1.60;;
2305;SDS011;1161;51.922;8.896;2024-03-23T15:49:47;3.13;;;1.90;;
2305;SDS011;1161;51.922;8.896;2024-03-23T15:52:15;3.50;;;1.97;;
2305;SDS011;1161;51.922;8.896;2024-03-23T15:54:42;5.60;;;1.80;;
2305;SDS011;1161;51.922;8.896;2024-03-23T15:57:09;6.73;;;2.30;;
2305;SDS011;1161;51.922;8.896;2024-03-23T15:59:36;2.20;;;2.00;;
2305;SDS011;1161;51.922;8.896;2024-03-23T16:02:06;2.23;;;2.17;;
2305;SDS011;1161;51.922;8.896;2024-03-23T16:04:32;3.50;;;2.53;;